PWSweather.com
Personal Weather Stations
Station Observations
N7MNK
Silver Springs N. Of Katka Peak, Moyie Springs, ID 83845

Silver Springs N. Of Katka PeakMoyie Springs, ID 83845

Lat: 48.6942181533144, Lon: -116.11900806427

Elevation: 2280

Station Type: WH1080

Latest ConditionsUpdated 7:27:43 AM PDT Saturday, Oct 25, 2014
Currently Today's Max Today's Min Today's Average
Temperature 39.4°F4.1°C 44.6°F7.0°C 39.4°F4.1°C 41.7°F5.4°C
Dew Point 35.8°F2.1°C 41.0°F5.0°C 35.8°F2.1°C 38.1°F3.4°C
Winds Calm Calm Calm Calm - Calm Calm
Wind Gusts -- -- - -
Humidity 87% 87% 87% 87%
Pressure 29.96 in1014.6 mb 30.13 in1020.3 mb 29.96 in1014.6 mb -
Hour Temp Dew Point Humidity Winds Wind Gusts Pressure Precip Precip Rate Daily Precip Total
07:27 AM 39.4°F4.1°C 35.8°F2.1°C 87% Calm Calm -- 29.96 in1014.6 mb 0.00 in0.0 mm 0.00 in/hr0.0 mm/hr 0.00 in0.0 mm
07:16 AM 39.4°F4.1°C 35.8°F2.1°C 87% Calm Calm -- 29.96 in1014.6 mb 0.00 in0.0 mm 0.00 in/hr0.0 mm/hr 0.00 in0.0 mm
07:05 AM 39.4°F4.1°C 35.8°F2.1°C 87% Calm Calm -- 29.97 in1014.9 mb 0.00 in0.0 mm 0.00 in/hr0.0 mm/hr 0.00 in0.0 mm
06:54 AM 39.4°F4.1°C 35.8°F2.1°C 87% Calm Calm -- 29.97 in1014.9 mb 0.00 in0.0 mm 0.00 in/hr0.0 mm/hr 0.00 in0.0 mm
06:43 AM 39.4°F4.1°C 35.8°F2.1°C 87% Calm Calm -- 29.98 in1015.2 mb 0.00 in0.0 mm 0.00 in/hr0.0 mm/hr 0.00 in0.0 mm
06:32 AM 39.6°F4.2°C 36.0°F2.2°C 87% Calm Calm -- 29.99 in1015.6 mb 0.00 in0.0 mm 0.00 in/hr0.0 mm/hr 0.00 in0.0 mm
06:21 AM 39.6°F4.2°C 36.0°F2.2°C 87% Calm Calm -- 30.00 in1015.9 mb 0.00 in0.0 mm 0.00 in/hr0.0 mm/hr 0.00 in0.0 mm
06:10 AM 39.6°F4.2°C 36.0°F2.2°C 87% Calm Calm -- 29.99 in1015.6 mb 0.00 in0.0 mm 0.00 in/hr0.0 mm/hr 0.00 in0.0 mm
05:59 AM 39.6°F4.2°C 36.0°F2.2°C 87% Calm Calm -- 29.99 in1015.6 mb 0.00 in0.0 mm 0.00 in/hr0.0 mm/hr 0.00 in0.0 mm
05:48 AM 39.7°F4.3°C 36.2°F2.3°C 87% Calm Calm -- 30.00 in1015.9 mb 0.00 in0.0 mm 0.00 in/hr0.0 mm/hr 0.00 in0.0 mm
05:37 AM 39.7°F4.3°C 36.2°F2.3°C 87% Calm Calm -- 30.00 in1015.9 mb 0.00 in0.0 mm 0.00 in/hr0.0 mm/hr 0.00 in0.0 mm
05:26 AM 39.7°F4.3°C 36.2°F2.3°C 87% Calm Calm -- 30.00 in1015.9 mb 0.00 in0.0 mm 0.00 in/hr0.0 mm/hr 0.00 in0.0 mm
05:15 AM 39.9°F4.4°C 36.4°F2.4°C 87% Calm Calm -- 30.01 in1016.3 mb 0.00 in0.0 mm 0.00 in/hr0.0 mm/hr 0.00 in0.0 mm
05:04 AM 39.7°F4.3°C 36.2°F2.3°C 87% Calm Calm -- 30.01 in1016.3 mb 0.00 in0.0 mm 0.00 in/hr0.0 mm/hr 0.00 in0.0 mm
04:53 AM 39.6°F4.2°C 36.0°F2.2°C 87% Calm Calm -- 30.02 in1016.6 mb 0.00 in0.0 mm 0.00 in/hr0.0 mm/hr 0.00 in0.0 mm
04:42 AM 39.7°F4.3°C 36.2°F2.3°C 87% Calm Calm -- 30.02 in1016.6 mb 0.00 in0.0 mm 0.00 in/hr0.0 mm/hr 0.00 in0.0 mm
04:31 AM 39.7°F4.3°C 36.2°F2.3°C 87% Calm Calm -- 30.02 in1016.6 mb 0.00 in0.0 mm 0.00 in/hr0.0 mm/hr 0.00 in0.0 mm
04:20 AM 40.1°F4.5°C 36.5°F2.5°C 87% Calm Calm -- 30.03 in1016.9 mb 0.00 in0.0 mm 0.00 in/hr0.0 mm/hr 0.00 in0.0 mm
04:09 AM 40.8°F4.9°C 37.3°F2.9°C 87% Calm Calm -- 30.02 in1016.6 mb 0.00 in0.0 mm 0.00 in/hr0.0 mm/hr 0.00 in0.0 mm
03:58 AM 40.8°F4.9°C 37.3°F2.9°C 87% Calm Calm -- 30.03 in1016.9 mb 0.00 in0.0 mm 0.00 in/hr0.0 mm/hr 0.00 in0.0 mm
03:47 AM 41.0°F5.0°C 37.4°F3.0°C 87% Calm Calm -- 30.03 in1016.9 mb 0.00 in0.0 mm 0.00 in/hr0.0 mm/hr 0.00 in0.0 mm
03:36 AM 41.0°F5.0°C 37.4°F3.0°C 87% Calm Calm -- 30.04 in1017.3 mb 0.00 in0.0 mm 0.00 in/hr0.0 mm/hr 0.00 in0.0 mm
03:25 AM 41.0°F5.0°C 37.4°F3.0°C 87% Calm Calm -- 30.04 in1017.3 mb 0.00 in0.0 mm 0.00 in/hr0.0 mm/hr 0.00 in0.0 mm
03:14 AM 41.7°F5.4°C 38.1°F3.4°C 87% Calm Calm -- 30.05 in1017.6 mb 0.00 in0.0 mm 0.00 in/hr0.0 mm/hr 0.00 in0.0 mm
03:03 AM 41.7°F5.4°C 38.1°F3.4°C 87% Calm Calm -- 30.06 in1017.9 mb 0.00 in0.0 mm 0.00 in/hr0.0 mm/hr 0.00 in0.0 mm
02:52 AM 41.7°F5.4°C 38.1°F3.4°C 87% Calm Calm -- 30.06 in1017.9 mb 0.00 in0.0 mm 0.00 in/hr0.0 mm/hr 0.00 in0.0 mm
02:41 AM 42.1°F5.6°C 38.5°F3.6°C 87% Calm Calm -- 30.07 in1018.3 mb 0.00 in0.0 mm 0.00 in/hr0.0 mm/hr 0.00 in0.0 mm
02:30 AM 44.6°F7.0°C 41.0°F5.0°C 87% Calm Calm -- 30.07 in1018.3 mb 0.00 in0.0 mm 0.00 in/hr0.0 mm/hr 0.01 in0.3 mm
02:19 AM 44.6°F7.0°C 41.0°F5.0°C 87% Calm Calm -- 30.08 in1018.6 mb 0.00 in0.0 mm 0.00 in/hr0.0 mm/hr 0.01 in0.3 mm
02:08 AM 44.6°F7.0°C 41.0°F5.0°C 87% Calm Calm -- 30.08 in1018.6 mb 0.00 in0.0 mm 0.00 in/hr0.0 mm/hr 0.01 in0.3 mm
01:57 AM 44.6°F7.0°C 41.0°F5.0°C 87% Calm Calm -- 30.09 in1019.0 mb 0.00 in0.0 mm 0.00 in/hr0.0 mm/hr 0.01 in0.3 mm
01:46 AM 44.6°F7.0°C 41.0°F5.0°C 87% Calm Calm -- 30.09 in1019.0 mb 0.00 in0.0 mm 0.00 in/hr0.0 mm/hr 0.01 in0.3 mm
01:35 AM 44.6°F7.0°C 41.0°F5.0°C 87% Calm Calm -- 30.10 in1019.3 mb 0.00 in0.0 mm 0.00 in/hr0.0 mm/hr 0.01 in0.3 mm
01:24 AM 44.6°F7.0°C 41.0°F5.0°C 87% Calm Calm -- 30.10 in1019.3 mb 0.00 in0.0 mm 0.00 in/hr0.0 mm/hr 0.01 in0.3 mm
01:13 AM 44.6°F7.0°C 41.0°F5.0°C 87% Calm Calm -- 30.10 in1019.3 mb 0.00 in0.0 mm 0.00 in/hr0.0 mm/hr 0.01 in0.3 mm
01:02 AM 44.6°F7.0°C 41.0°F5.0°C 87% Calm Calm -- 30.11 in1019.6 mb 0.00 in0.0 mm 0.00 in/hr0.0 mm/hr 0.01 in0.3 mm
12:51 AM 44.6°F7.0°C 41.0°F5.0°C 87% Calm Calm -- 30.11 in1019.6 mb 0.00 in0.0 mm 0.00 in/hr0.0 mm/hr 0.01 in0.3 mm
12:40 AM 44.6°F7.0°C 41.0°F5.0°C 87% Calm Calm -- 30.11 in1019.6 mb 0.00 in0.0 mm 0.00 in/hr0.0 mm/hr 0.01 in0.3 mm
12:29 AM 44.6°F7.0°C 41.0°F5.0°C 87% Calm Calm -- 30.11 in1019.6 mb 0.00 in0.0 mm 0.00 in/hr0.0 mm/hr 0.01 in0.3 mm
12:18 AM 44.6°F7.0°C 41.0°F5.0°C 87% Calm Calm -- 30.13 in1020.3 mb 0.00 in0.0 mm 0.00 in/hr0.0 mm/hr 0.01 in0.3 mm
12:07 AM 44.6°F7.0°C 41.0°F5.0°C 87% Calm Calm -- 30.12 in1020.0 mb 0.00 in0.0 mm 0.00 in/hr0.0 mm/hr 0.01 in0.3 mm